sensor_id;sensor_type;location;lat;lon;timestamp;temperature;humidity
10678;DHT22;5387;48.722;9.110;2023-02-12T00:00:20;5.00;99.90
10678;DHT22;5387;48.722;9.110;2023-02-12T00:02:46;5.00;99.90
10678;DHT22;5387;48.722;9.110;2023-02-12T00:05:13;4.90;99.90
10678;DHT22;5387;48.722;9.110;2023-02-12T00:07:42;5.00;99.90
10678;DHT22;5387;48.722;9.110;2023-02-12T00:10:10;5.00;99.90
10678;DHT22;5387;48.722;9.110;2023-02-12T00:12:38;4.90;99.90
10678;DHT22;5387;48.722;9.110;2023-02-12T00:15:05;4.90;99.90
10678;DHT22;5387;48.722;9.110;2023-02-12T00:17:32;4.80;99.90
10678;DHT22;5387;48.722;9.110;2023-02-12T00:19:59;4.80;99.90
10678;DHT22;5387;48.722;9.110;2023-02-12T00:22:26;4.80;99.90
10678;DHT22;5387;48.722;9.110;2023-02-12T00:24:55;5.10;99.90
10678;DHT22;5387;48.722;9.110;2023-02-12T00:27:22;5.30;99.90
10678;DHT22;5387;48.722;9.110;2023-02-12T00:29:49;5.00;99.90
10678;DHT22;5387;48.722;9.110;2023-02-12T00:32:16;5.20;99.90
10678;DHT22;5387;48.722;9.110;2023-02-12T00:34:44;5.00;99.90
10678;DHT22;5387;48.722;9.110;2023-02-12T00:37:11;5.10;99.90
10678;DHT22;5387;48.722;9.110;2023-02-12T00:39:38;5.00;99.90
10678;DHT22;5387;48.722;9.110;2023-02-12T00:42:06;5.00;99.90
10678;DHT22;5387;48.722;9.110;2023-02-12T00:44:33;4.90;99.90
10678;DHT22;5387;48.722;9.110;2023-02-12T00:47:00;5.00;99.90
10678;DHT22;5387;48.722;9.110;2023-02-12T00:49:27;5.00;99.90
10678;DHT22;5387;48.722;9.110;2023-02-12T00:51:58;4.90;99.90
10678;DHT22;5387;48.722;9.110;2023-02-12T00:54:25;4.90;99.90
10678;DHT22;5387;48.722;9.110;2023-02-12T00:56:52;4.60;99.90
10678;DHT22;5387;48.722;9.110;2023-02-12T00:59:21;4.60;99.90
10678;DHT22;5387;48.722;9.110;2023-02-12T01:01:49;4.70;99.90
10678;DHT22;5387;48.722;9.110;2023-02-12T01:04:16;4.70;99.90
10678;DHT22;5387;48.722;9.110;2023-02-12T01:06:43;4.70;99.90
10678;DHT22;5387;48.722;9.110;2023-02-12T01:09:10;4.60;99.90
10678;DHT22;5387;48.722;9.110;2023-02-12T01:11:37;4.80;99.90
10678;DHT22;5387;48.722;9.110;2023-02-12T01:14:04;4.70;99.90
10678;DHT22;5387;48.722;9.110;2023-02-12T01:16:33;4.60;99.90
10678;DHT22;5387;48.722;9.110;2023-02-12T01:19:01;4.70;99.90
10678;DHT22;5387;48.722;9.110;2023-02-12T01:21:30;4.80;99.90
10678;DHT22;5387;48.722;9.110;2023-02-12T01:23:58;4.60;99.90
10678;DHT22;5387;48.722;9.110;2023-02-12T01:26:27;4.60;99.90
10678;DHT22;5387;48.722;9.110;2023-02-12T01:28:55;4.80;99.90
10678;DHT22;5387;48.722;9.110;2023-02-12T01:31:24;4.60;99.90
10678;DHT22;5387;48.722;9.110;2023-02-12T01:33:54;4.60;99.90
10678;DHT22;5387;48.722;9.110;2023-02-12T01:36:22;4.80;99.90
10678;DHT22;5387;48.722;9.110;2023-02-12T01:38:49;4.70;99.90
10678;DHT22;5387;48.722;9.110;2023-02-12T01:41:18;4.90;99.90
10678;DHT22;5387;48.722;9.110;2023-02-12T01:46:27;4.90;99.90
10678;DHT22;5387;48.722;9.110;2023-02-12T01:48:56;4.90;99.90
10678;DHT22;5387;48.722;9.110;2023-02-12T01:51:24;4.90;99.90
10678;DHT22;5387;48.722;9.110;2023-02-12T01:53:54;4.90;99.90
10678;DHT22;5387;48.722;9.110;2023-02-12T01:56:23;4.90;99.90
10678;DHT22;5387;48.722;9.110;2023-02-12T01:58:51;4.90;99.90
10678;DHT22;5387;48.722;9.110;2023-02-12T02:01:22;5.00;99.90
10678;DHT22;5387;48.722;9.110;2023-02-12T02:03:53;4.80;99.90
10678;DHT22;5387;48.722;9.110;2023-02-12T02:06:26;4.80;99.90
10678;DHT22;5387;48.722;9.110;2023-02-12T02:08:54;4.80;99.90
10678;DHT22;5387;48.722;9.110;2023-02-12T02:11:22;4.90;99.90
10678;DHT22;5387;48.722;9.110;2023-02-12T02:14:07;4.80;99.90
10678;DHT22;5387;48.722;9.110;2023-02-12T02:16:59;4.70;99.90
10678;DHT22;5387;48.722;9.110;2023-02-12T02:19:34;4.90;99.90
10678;DHT22;5387;48.722;9.110;2023-02-12T02:22:31;4.80;99.90
10678;DHT22;5387;48.722;9.110;2023-02-12T02:25:35;4.90;99.90
10678;DHT22;5387;48.722;9.110;2023-02-12T02:28:21;4.60;99.90
10678;DHT22;5387;48.722;9.110;2023-02-12T02:30:55;4.50;99.90
10678;DHT22;5387;48.722;9.110;2023-02-12T02:33:31;4.30;99.90
10678;DHT22;5387;48.722;9.110;2023-02-12T02:36:10;4.30;99.90
10678;DHT22;5387;48.722;9.110;2023-02-12T02:38:42;4.40;99.90
10678;DHT22;5387;48.722;9.110;2023-02-12T02:41:15;4.60;99.90
10678;DHT22;5387;48.722;9.110;2023-02-12T02:43:46;4.60;99.90
10678;DHT22;5387;48.722;9.110;2023-02-12T02:46:17;4.70;99.90
10678;DHT22;5387;48.722;9.110;2023-02-12T02:48:49;4.70;99.90
10678;DHT22;5387;48.722;9.110;2023-02-12T02:51:20;4.90;99.90
10678;DHT22;5387;48.722;9.110;2023-02-12T02:53:50;4.60;99.90
10678;DHT22;5387;48.722;9.110;2023-02-12T02:56:21;4.50;99.90
10678;DHT22;5387;48.722;9.110;2023-02-12T02:58:52;4.40;99.90
10678;DHT22;5387;48.722;9.110;2023-02-12T03:01:24;4.20;99.90
10678;DHT22;5387;48.722;9.110;2023-02-12T03:03:58;4.20;99.90
10678;DHT22;5387;48.722;9.110;2023-02-12T03:06:31;4.20;99.90
10678;DHT22;5387;48.722;9.110;2023-02-12T03:09:03;4.20;99.90
10678;DHT22;5387;48.722;9.110;2023-02-12T03:11:32;4.30;99.90
10678;DHT22;5387;48.722;9.110;2023-02-12T03:14:06;4.30;99.90
10678;DHT22;5387;48.722;9.110;2023-02-12T03:16:38;4.30;99.90
10678;DHT22;5387;48.722;9.110;2023-02-12T03:19:11;4.30;99.90
10678;DHT22;5387;48.722;9.110;2023-02-12T03:21:42;4.40;99.90
10678;DHT22;5387;48.722;9.110;2023-02-12T03:24:15;4.50;99.90
10678;DHT22;5387;48.722;9.110;2023-02-12T03:26:46;4.60;99.90
10678;DHT22;5387;48.722;9.110;2023-02-12T03:29:14;4.60;99.90
10678;DHT22;5387;48.722;9.110;2023-02-12T03:31:55;4.70;99.90
10678;DHT22;5387;48.722;9.110;2023-02-12T03:34:29;4.70;99.90
10678;DHT22;5387;48.722;9.110;2023-02-12T03:37:04;4.70;99.90
10678;DHT22;5387;48.722;9.110;2023-02-12T03:39:36;4.70;99.90
10678;DHT22;5387;48.722;9.110;2023-02-12T03:42:07;4.70;99.90
10678;DHT22;5387;48.722;9.110;2023-02-12T03:44:47;4.60;99.90
10678;DHT22;5387;48.722;9.110;2023-02-12T03:47:21;4.70;99.90
10678;DHT22;5387;48.722;9.110;2023-02-12T03:49:54;4.60;99.90
10678;DHT22;5387;48.722;9.110;2023-02-12T03:52:24;4.50;99.90
10678;DHT22;5387;48.722;9.110;2023-02-12T03:54:51;4.50;99.90
10678;DHT22;5387;48.722;9.110;2023-02-12T03:57:20;4.60;99.90
10678;DHT22;5387;48.722;9.110;2023-02-12T03:59:47;4.60;99.90
10678;DHT22;5387;48.722;9.110;2023-02-12T04:02:18;4.70;99.90
10678;DHT22;5387;48.722;9.110;2023-02-12T04:04:46;4.70;99.90
10678;DHT22;5387;48.722;9.110;2023-02-12T04:07:13;4.90;99.90
10678;DHT22;5387;48.722;9.110;2023-02-12T04:09:41;4.40;99.90
10678;DHT22;5387;48.722;9.110;2023-02-12T04:15:15;4.60;99.90
10678;DHT22;5387;48.722;9.110;2023-02-12T04:17:53;4.70;99.90
10678;DHT22;5387;48.722;9.110;2023-02-12T04:20:29;4.70;99.90
10678;DHT22;5387;48.722;9.110;2023-02-12T04:23:08;4.70;99.90
10678;DHT22;5387;48.722;9.110;2023-02-12T04:25:48;4.70;99.90
10678;DHT22;5387;48.722;9.110;2023-02-12T04:28:26;4.50;99.90
10678;DHT22;5387;48.722;9.110;2023-02-12T04:30:58;4.40;99.90
10678;DHT22;5387;48.722;9.110;2023-02-12T04:33:33;4.40;99.90
10678;DHT22;5387;48.722;9.110;2023-02-12T04:36:04;4.50;99.90
10678;DHT22;5387;48.722;9.110;2023-02-12T04:38:35;4.50;99.90
10678;DHT22;5387;48.722;9.110;2023-02-12T04:41:05;4.70;99.90
10678;DHT22;5387;48.722;9.110;2023-02-12T04:43:35;4.60;99.90
10678;DHT22;5387;48.722;9.110;2023-02-12T04:46:03;4.60;99.90
10678;DHT22;5387;48.722;9.110;2023-02-12T04:48:31;4.60;99.90
10678;DHT22;5387;48.722;9.110;2023-02-12T04:50:59;4.60;99.90
10678;DHT22;5387;48.722;9.110;2023-02-12T04:53:26;4.40;99.90
10678;DHT22;5387;48.722;9.110;2023-02-12T04:55:52;4.30;99.90
10678;DHT22;5387;48.722;9.110;2023-02-12T04:58:19;4.40;99.90
10678;DHT22;5387;48.722;9.110;2023-02-12T05:00:46;4.40;99.90
10678;DHT22;5387;48.722;9.110;2023-02-12T05:03:13;4.50;99.90
10678;DHT22;5387;48.722;9.110;2023-02-12T05:05:41;4.50;99.90
10678;DHT22;5387;48.722;9.110;2023-02-12T05:08:08;4.50;99.90
10678;DHT22;5387;48.722;9.110;2023-02-12T05:10:35;4.60;99.90
10678;DHT22;5387;48.722;9.110;2023-02-12T05:13:02;4.50;99.90
10678;DHT22;5387;48.722;9.110;2023-02-12T05:15:28;4.50;99.90
10678;DHT22;5387;48.722;9.110;2023-02-12T05:17:55;4.50;99.90
10678;DHT22;5387;48.722;9.110;2023-02-12T05:20:22;4.80;99.90
10678;DHT22;5387;48.722;9.110;2023-02-12T05:22:52;4.60;99.90
10678;DHT22;5387;48.722;9.110;2023-02-12T05:25:19;4.80;99.90
10678;DHT22;5387;48.722;9.110;2023-02-12T05:27:45;4.70;99.90
10678;DHT22;5387;48.722;9.110;2023-02-12T05:30:13;4.70;99.90
10678;DHT22;5387;48.722;9.110;2023-02-12T05:32:40;4.60;99.90
10678;DHT22;5387;48.722;9.110;2023-02-12T05:35:07;4.50;99.90
10678;DHT22;5387;48.722;9.110;2023-02-12T05:37:34;4.50;99.90
10678;DHT22;5387;48.722;9.110;2023-02-12T05:40:03;4.50;99.90
10678;DHT22;5387;48.722;9.110;2023-02-12T05:42:30;4.40;99.90
10678;DHT22;5387;48.722;9.110;2023-02-12T05:44:58;4.40;99.90
10678;DHT22;5387;48.722;9.110;2023-02-12T05:47:24;4.50;99.90
10678;DHT22;5387;48.722;9.110;2023-02-12T05:49:51;4.50;99.90
10678;DHT22;5387;48.722;9.110;2023-02-12T05:52:18;4.50;99.90
10678;DHT22;5387;48.722;9.110;2023-02-12T05:54:48;4.30;99.90
10678;DHT22;5387;48.722;9.110;2023-02-12T05:57:16;4.30;99.90
10678;DHT22;5387;48.722;9.110;2023-02-12T05:59:43;4.30;99.90
10678;DHT22;5387;48.722;9.110;2023-02-12T06:02:09;4.40;99.90
10678;DHT22;5387;48.722;9.110;2023-02-12T06:04:36;4.60;99.90
10678;DHT22;5387;48.722;9.110;2023-02-12T06:07:03;4.40;99.90
10678;DHT22;5387;48.722;9.110;2023-02-12T06:09:32;4.30;99.90
10678;DHT22;5387;48.722;9.110;2023-02-12T06:11:59;4.50;99.90
10678;DHT22;5387;48.722;9.110;2023-02-12T06:14:27;4.60;99.90
10678;DHT22;5387;48.722;9.110;2023-02-12T06:16:54;4.80;99.90
10678;DHT22;5387;48.722;9.110;2023-02-12T06:19:21;4.90;99.90
10678;DHT22;5387;48.722;9.110;2023-02-12T06:21:49;4.90;99.90
10678;DHT22;5387;48.722;9.110;2023-02-12T06:24:16;5.00;99.90
10678;DHT22;5387;48.722;9.110;2023-02-12T06:26:43;4.80;99.90
10678;DHT22;5387;48.722;9.110;2023-02-12T06:29:10;4.80;99.90
10678;DHT22;5387;48.722;9.110;2023-02-12T06:31:39;4.90;99.90
10678;DHT22;5387;48.722;9.110;2023-02-12T06:34:07;5.00;99.90
10678;DHT22;5387;48.722;9.110;2023-02-12T06:36:36;4.90;99.90
10678;DHT22;5387;48.722;9.110;2023-02-12T06:39:03;4.80;99.90
10678;DHT22;5387;48.722;9.110;2023-02-12T06:41:30;4.90;99.90
10678;DHT22;5387;48.722;9.110;2023-02-12T06:43:57;4.90;99.90
10678;DHT22;5387;48.722;9.110;2023-02-12T06:46:24;5.00;99.90
10678;DHT22;5387;48.722;9.110;2023-02-12T06:48:54;4.60;99.90
10678;DHT22;5387;48.722;9.110;2023-02-12T06:51:21;4.80;99.90
10678;DHT22;5387;48.722;9.110;2023-02-12T06:53:49;5.10;99.90
10678;DHT22;5387;48.722;9.110;2023-02-12T06:56:16;4.90;99.90
10678;DHT22;5387;48.722;9.110;2023-02-12T06:58:45;4.80;99.90
10678;DHT22;5387;48.722;9.110;2023-02-12T07:01:14;4.90;99.90
10678;DHT22;5387;48.722;9.110;2023-02-12T07:03:43;5.10;99.90
10678;DHT22;5387;48.722;9.110;2023-02-12T07:06:11;5.10;99.90
10678;DHT22;5387;48.722;9.110;2023-02-12T07:08:38;5.00;99.90
10678;DHT22;5387;48.722;9.110;2023-02-12T07:11:05;5.10;99.90
10678;DHT22;5387;48.722;9.110;2023-02-12T07:13:33;5.20;99.90
10678;DHT22;5387;48.722;9.110;2023-02-12T07:16:02;5.20;99.90
10678;DHT22;5387;48.722;9.110;2023-02-12T07:18:30;5.10;99.90
10678;DHT22;5387;48.722;9.110;2023-02-12T07:20:56;5.20;99.90
10678;DHT22;5387;48.722;9.110;2023-02-12T07:23:25;4.90;99.90
10678;DHT22;5387;48.722;9.110;2023-02-12T07:25:55;5.00;99.90
10678;DHT22;5387;48.722;9.110;2023-02-12T07:28:22;4.90;99.90
10678;DHT22;5387;48.722;9.110;2023-02-12T07:30:49;4.90;99.90
10678;DHT22;5387;48.722;9.110;2023-02-12T07:33:16;5.00;99.90
10678;DHT22;5387;48.722;9.110;2023-02-12T07:35:43;4.80;99.90
10678;DHT22;5387;48.722;9.110;2023-02-12T07:38:10;4.80;99.90
10678;DHT22;5387;48.722;9.110;2023-02-12T07:40:39;4.50;99.90
10678;DHT22;5387;48.722;9.110;2023-02-12T07:43:06;4.60;99.90
10678;DHT22;5387;48.722;9.110;2023-02-12T07:45:32;4.80;99.90
10678;DHT22;5387;48.722;9.110;2023-02-12T07:47:59;4.70;99.90
10678;DHT22;5387;48.722;9.110;2023-02-12T07:50:26;4.60;99.90
10678;DHT22;5387;48.722;9.110;2023-02-12T07:52:53;4.80;99.90
10678;DHT22;5387;48.722;9.110;2023-02-12T07:55:20;5.20;99.90
10678;DHT22;5387;48.722;9.110;2023-02-12T07:57:48;5.10;99.90
10678;DHT22;5387;48.722;9.110;2023-02-12T08:00:15;5.20;99.90
10678;DHT22;5387;48.722;9.110;2023-02-12T08:02:42;5.20;99.90
10678;DHT22;5387;48.722;9.110;2023-02-12T08:05:09;5.40;99.90
10678;DHT22;5387;48.722;9.110;2023-02-12T08:07:36;5.50;99.90
10678;DHT22;5387;48.722;9.110;2023-02-12T08:10:03;5.70;99.90
10678;DHT22;5387;48.722;9.110;2023-02-12T08:12:30;5.60;99.90
10678;DHT22;5387;48.722;9.110;2023-02-12T08:14:58;5.60;99.90
10678;DHT22;5387;48.722;9.110;2023-02-12T08:17:25;5.50;99.90
10678;DHT22;5387;48.722;9.110;2023-02-12T08:19:52;5.40;99.90
10678;DHT22;5387;48.722;9.110;2023-02-12T08:22:18;5.40;99.90
10678;DHT22;5387;48.722;9.110;2023-02-12T08:24:46;5.60;99.90
10678;DHT22;5387;48.722;9.110;2023-02-12T08:27:13;5.20;99.90
10678;DHT22;5387;48.722;9.110;2023-02-12T08:29:40;5.40;99.90
10678;DHT22;5387;48.722;9.110;2023-02-12T08:32:08;5.60;99.90
10678;DHT22;5387;48.722;9.110;2023-02-12T08:34:38;5.80;99.90
10678;DHT22;5387;48.722;9.110;2023-02-12T08:37:05;5.70;99.90
10678;DHT22;5387;48.722;9.110;2023-02-12T08:39:32;5.60;99.90
10678;DHT22;5387;48.722;9.110;2023-02-12T08:41:59;5.70;99.90
10678;DHT22;5387;48.722;9.110;2023-02-12T08:44:26;5.80;99.90
10678;DHT22;5387;48.722;9.110;2023-02-12T08:46:53;5.60;99.90
10678;DHT22;5387;48.722;9.110;2023-02-12T08:49:23;5.50;99.90
10678;DHT22;5387;48.722;9.110;2023-02-12T08:51:54;5.70;99.90
10678;DHT22;5387;48.722;9.110;2023-02-12T08:54:22;5.90;99.90
10678;DHT22;5387;48.722;9.110;2023-02-12T08:56:50;6.10;99.90
10678;DHT22;5387;48.722;9.110;2023-02-12T08:59:19;6.00;99.90
10678;DHT22;5387;48.722;9.110;2023-02-12T09:01:49;6.00;99.90
10678;DHT22;5387;48.722;9.110;2023-02-12T09:04:18;6.20;99.90
10678;DHT22;5387;48.722;9.110;2023-02-12T09:06:48;6.50;99.90
10678;DHT22;5387;48.722;9.110;2023-02-12T09:09:15;6.70;99.90
10678;DHT22;5387;48.722;9.110;2023-02-12T09:11:44;6.70;99.90
10678;DHT22;5387;48.722;9.110;2023-02-12T09:14:13;6.90;99.90
10678;DHT22;5387;48.722;9.110;2023-02-12T09:16:40;6.90;99.90
10678;DHT22;5387;48.722;9.110;2023-02-12T09:19:07;6.70;99.90
10678;DHT22;5387;48.722;9.110;2023-02-12T09:21:34;6.70;99.90
10678;DHT22;5387;48.722;9.110;2023-02-12T09:24:03;6.80;99.90
10678;DHT22;5387;48.722;9.110;2023-02-12T09:26:30;6.90;99.90
10678;DHT22;5387;48.722;9.110;2023-02-12T09:28:57;7.10;99.90
10678;DHT22;5387;48.722;9.110;2023-02-12T09:31:26;7.10;99.90
10678;DHT22;5387;48.722;9.110;2023-02-12T09:33:54;7.20;99.90
10678;DHT22;5387;48.722;9.110;2023-02-12T09:36:23;7.00;99.90
10678;DHT22;5387;48.722;9.110;2023-02-12T09:38:50;7.10;99.90
10678;DHT22;5387;48.722;9.110;2023-02-12T09:41:45;7.10;99.90
10678;DHT22;5387;48.722;9.110;2023-02-12T09:44:20;7.00;99.90
10678;DHT22;5387;48.722;9.110;2023-02-12T09:46:51;7.00;99.90
10678;DHT22;5387;48.722;9.110;2023-02-12T09:49:43;7.20;99.90
10678;DHT22;5387;48.722;9.110;2023-02-12T09:52:17;7.50;99.90
10678;DHT22;5387;48.722;9.110;2023-02-12T09:54:45;7.50;99.90
10678;DHT22;5387;48.722;9.110;2023-02-12T09:57:18;7.70;99.90
10678;DHT22;5387;48.722;9.110;2023-02-12T09:59:50;7.80;99.90
10678;DHT22;5387;48.722;9.110;2023-02-12T10:02:19;7.60;99.90
10678;DHT22;5387;48.722;9.110;2023-02-12T10:04:48;7.80;99.90
10678;DHT22;5387;48.722;9.110;2023-02-12T10:07:21;7.80;99.90
10678;DHT22;5387;48.722;9.110;2023-02-12T10:10:07;7.80;99.90
10678;DHT22;5387;48.722;9.110;2023-02-12T10:12:42;7.70;99.90
10678;DHT22;5387;48.722;9.110;2023-02-12T10:15:31;7.60;99.90
10678;DHT22;5387;48.722;9.110;2023-02-12T10:18:10;8.10;99.90
10678;DHT22;5387;48.722;9.110;2023-02-12T10:20:51;8.40;99.90
10678;DHT22;5387;48.722;9.110;2023-02-12T10:23:27;8.10;99.90
10678;DHT22;5387;48.722;9.110;2023-02-12T10:25:57;8.20;99.90
10678;DHT22;5387;48.722;9.110;2023-02-12T10:28:37;8.00;99.90
10678;DHT22;5387;48.722;9.110;2023-02-12T10:31:07;8.20;99.90
10678;DHT22;5387;48.722;9.110;2023-02-12T10:33:41;8.10;99.90
10678;DHT22;5387;48.722;9.110;2023-02-12T10:36:16;8.20;99.90
10678;DHT22;5387;48.722;9.110;2023-02-12T10:38:48;7.90;99.90
10678;DHT22;5387;48.722;9.110;2023-02-12T10:41:16;7.90;99.90
10678;DHT22;5387;48.722;9.110;2023-02-12T10:43:44;8.00;99.90
10678;DHT22;5387;48.722;9.110;2023-02-12T10:46:13;7.90;99.90
10678;DHT22;5387;48.722;9.110;2023-02-12T10:48:43;7.90;99.90
10678;DHT22;5387;48.722;9.110;2023-02-12T10:51:24;7.70;99.90
10678;DHT22;5387;48.722;9.110;2023-02-12T10:53:55;7.80;99.90
10678;DHT22;5387;48.722;9.110;2023-02-12T10:56:23;8.10;99.90
10678;DHT22;5387;48.722;9.110;2023-02-12T10:58:56;8.00;99.90
10678;DHT22;5387;48.722;9.110;2023-02-12T11:01:27;7.90;99.90
10678;DHT22;5387;48.722;9.110;2023-02-12T11:03:56;7.80;99.90
10678;DHT22;5387;48.722;9.110;2023-02-12T11:06:25;8.00;99.90
10678;DHT22;5387;48.722;9.110;2023-02-12T11:08:53;8.20;99.90
10678;DHT22;5387;48.722;9.110;2023-02-12T11:11:22;8.30;99.90
10678;DHT22;5387;48.722;9.110;2023-02-12T11:13:57;8.30;99.90
10678;DHT22;5387;48.722;9.110;2023-02-12T11:16:29;8.40;99.90
10678;DHT22;5387;48.722;9.110;2023-02-12T11:19:01;8.10;99.90
10678;DHT22;5387;48.722;9.110;2023-02-12T11:21:29;7.80;99.90
10678;DHT22;5387;48.722;9.110;2023-02-12T11:23:56;7.80;99.90
10678;DHT22;5387;48.722;9.110;2023-02-12T11:26:27;7.80;99.90
10678;DHT22;5387;48.722;9.110;2023-02-12T11:28:58;7.90;99.90
10678;DHT22;5387;48.722;9.110;2023-02-12T11:31:26;8.00;99.90
10678;DHT22;5387;48.722;9.110;2023-02-12T11:34:07;8.30;99.90
10678;DHT22;5387;48.722;9.110;2023-02-12T11:36:36;8.40;99.90
10678;DHT22;5387;48.722;9.110;2023-02-12T11:39:03;8.30;99.90
10678;DHT22;5387;48.722;9.110;2023-02-12T11:41:34;8.10;99.90
10678;DHT22;5387;48.722;9.110;2023-02-12T11:44:09;8.40;99.90
10678;DHT22;5387;48.722;9.110;2023-02-12T11:46:38;8.30;99.90
10678;DHT22;5387;48.722;9.110;2023-02-12T11:49:06;8.40;99.90
10678;DHT22;5387;48.722;9.110;2023-02-12T11:51:35;8.30;99.90
10678;DHT22;5387;48.722;9.110;2023-02-12T11:54:03;8.30;99.90
10678;DHT22;5387;48.722;9.110;2023-02-12T11:56:42;8.10;99.90
10678;DHT22;5387;48.722;9.110;2023-02-12T11:59:26;8.10;99.90
10678;DHT22;5387;48.722;9.110;2023-02-12T12:01:56;8.30;99.90
10678;DHT22;5387;48.722;9.110;2023-02-12T12:04:26;8.30;99.90
10678;DHT22;5387;48.722;9.110;2023-02-12T12:06:59;8.30;99.90
10678;DHT22;5387;48.722;9.110;2023-02-12T12:09:34;8.60;99.90
10678;DHT22;5387;48.722;9.110;2023-02-12T12:12:09;8.30;99.90
10678;DHT22;5387;48.722;9.110;2023-02-12T12:14:43;8.70;99.90
10678;DHT22;5387;48.722;9.110;2023-02-12T12:17:40;8.60;99.90
10678;DHT22;5387;48.722;9.110;2023-02-12T12:20:29;9.10;99.90
10678;DHT22;5387;48.722;9.110;2023-02-12T12:22:59;9.30;99.90
10678;DHT22;5387;48.722;9.110;2023-02-12T12:25:30;9.10;99.90
10678;DHT22;5387;48.722;9.110;2023-02-12T12:28:07;9.00;99.90
10678;DHT22;5387;48.722;9.110;2023-02-12T12:30:54;9.00;99.90
10678;DHT22;5387;48.722;9.110;2023-02-12T12:33:29;8.80;99.90
10678;DHT22;5387;48.722;9.110;2023-02-12T12:36:09;8.80;99.90
10678;DHT22;5387;48.722;9.110;2023-02-12T12:38:47;8.80;99.90
10678;DHT22;5387;48.722;9.110;2023-02-12T12:41:23;8.90;99.90
10678;DHT22;5387;48.722;9.110;2023-02-12T12:44:03;9.10;99.90
10678;DHT22;5387;48.722;9.110;2023-02-12T12:46:40;9.10;99.90
10678;DHT22;5387;48.722;9.110;2023-02-12T12:49:33;9.40;99.90
10678;DHT22;5387;48.722;9.110;2023-02-12T12:52:32;9.30;99.90
10678;DHT22;5387;48.722;9.110;2023-02-12T12:55:15;9.20;99.90
10678;DHT22;5387;48.722;9.110;2023-02-12T12:57:54;9.30;99.90
10678;DHT22;5387;48.722;9.110;2023-02-12T13:00:48;9.40;99.90
10678;DHT22;5387;48.722;9.110;2023-02-12T13:06:40;9.30;99.90
10678;DHT22;5387;48.722;9.110;2023-02-12T13:09:32;9.20;99.90
10678;DHT22;5387;48.722;9.110;2023-02-12T13:12:25;9.40;99.90
10678;DHT22;5387;48.722;9.110;2023-02-12T13:14:57;9.60;99.90
10678;DHT22;5387;48.722;9.110;2023-02-12T13:17:30;9.50;99.90
10678;DHT22;5387;48.722;9.110;2023-02-12T13:20:07;9.30;99.90
10678;DHT22;5387;48.722;9.110;2023-02-12T13:22:40;9.10;99.90
10678;DHT22;5387;48.722;9.110;2023-02-12T13:25:18;9.00;99.90
10678;DHT22;5387;48.722;9.110;2023-02-12T13:27:48;8.90;99.90
10678;DHT22;5387;48.722;9.110;2023-02-12T13:30:22;8.90;99.90
10678;DHT22;5387;48.722;9.110;2023-02-12T13:33:03;9.00;99.90
10678;DHT22;5387;48.722;9.110;2023-02-12T13:35:34;8.80;99.90
10678;DHT22;5387;48.722;9.110;2023-02-12T13:38:05;8.90;99.90
10678;DHT22;5387;48.722;9.110;2023-02-12T13:40:34;8.80;99.90
10678;DHT22;5387;48.722;9.110;2023-02-12T13:43:06;8.70;99.90
10678;DHT22;5387;48.722;9.110;2023-02-12T13:45:45;8.80;99.90
10678;DHT22;5387;48.722;9.110;2023-02-12T13:48:38;8.60;99.90
10678;DHT22;5387;48.722;9.110;2023-02-12T13:51:16;8.50;99.90
10678;DHT22;5387;48.722;9.110;2023-02-12T13:53:53;8.60;99.90
10678;DHT22;5387;48.722;9.110;2023-02-12T13:56:32;8.60;99.90
10678;DHT22;5387;48.722;9.110;2023-02-12T13:59:00;8.60;99.90
10678;DHT22;5387;48.722;9.110;2023-02-12T14:01:39;8.50;99.90
10678;DHT22;5387;48.722;9.110;2023-02-12T14:04:29;8.40;99.90
10678;DHT22;5387;48.722;9.110;2023-02-12T14:07:00;8.30;99.90
10678;DHT22;5387;48.722;9.110;2023-02-12T14:09:38;8.20;99.90
10678;DHT22;5387;48.722;9.110;2023-02-12T14:12:08;8.10;99.90
10678;DHT22;5387;48.722;9.110;2023-02-12T14:14:37;8.00;99.90
10678;DHT22;5387;48.722;9.110;2023-02-12T14:17:40;8.00;99.90
10678;DHT22;5387;48.722;9.110;2023-02-12T14:20:20;7.90;99.90
10678;DHT22;5387;48.722;9.110;2023-02-12T14:26:02;7.90;99.90
10678;DHT22;5387;48.722;9.110;2023-02-12T14:28:46;8.00;99.90
10678;DHT22;5387;48.722;9.110;2023-02-12T14:31:33;7.90;99.90
10678;DHT22;5387;48.722;9.110;2023-02-12T14:37:35;8.00;99.90
10678;DHT22;5387;48.722;9.110;2023-02-12T14:40:30;8.00;99.90
10678;DHT22;5387;48.722;9.110;2023-02-12T14:43:27;8.00;99.90
10678;DHT22;5387;48.722;9.110;2023-02-12T14:45:55;7.90;99.90
10678;DHT22;5387;48.722;9.110;2023-02-12T14:48:43;7.90;99.90
10678;DHT22;5387;48.722;9.110;2023-02-12T14:51:15;7.90;99.90
10678;DHT22;5387;48.722;9.110;2023-02-12T14:53:45;7.90;99.90
10678;DHT22;5387;48.722;9.110;2023-02-12T14:56:18;7.90;99.90
10678;DHT22;5387;48.722;9.110;2023-02-12T14:58:46;7.80;99.90
10678;DHT22;5387;48.722;9.110;2023-02-12T15:01:13;7.80;99.90
10678;DHT22;5387;48.722;9.110;2023-02-12T15:03:44;8.10;99.90
10678;DHT22;5387;48.722;9.110;2023-02-12T15:06:14;7.90;99.90
10678;DHT22;5387;48.722;9.110;2023-02-12T15:08:45;7.90;99.90
10678;DHT22;5387;48.722;9.110;2023-02-12T15:11:34;7.80;99.90
10678;DHT22;5387;48.722;9.110;2023-02-12T15:14:04;7.70;99.90
10678;DHT22;5387;48.722;9.110;2023-02-12T15:16:38;7.70;99.90
10678;DHT22;5387;48.722;9.110;2023-02-12T15:19:17;7.70;99.90
10678;DHT22;5387;48.722;9.110;2023-02-12T15:21:46;7.80;99.90
10678;DHT22;5387;48.722;9.110;2023-02-12T15:24:20;7.60;99.90
10678;DHT22;5387;48.722;9.110;2023-02-12T15:26:50;7.60;99.90
10678;DHT22;5387;48.722;9.110;2023-02-12T15:29:20;7.70;99.90
10678;DHT22;5387;48.722;9.110;2023-02-12T15:31:52;7.60;99.90
10678;DHT22;5387;48.722;9.110;2023-02-12T15:34:21;7.50;99.90
10678;DHT22;5387;48.722;9.110;2023-02-12T15:36:48;7.50;99.90
10678;DHT22;5387;48.722;9.110;2023-02-12T15:39:17;7.50;99.90
10678;DHT22;5387;48.722;9.110;2023-02-12T15:41:47;7.50;99.90
10678;DHT22;5387;48.722;9.110;2023-02-12T15:44:21;7.50;99.90
10678;DHT22;5387;48.722;9.110;2023-02-12T15:46:56;7.50;99.90
10678;DHT22;5387;48.722;9.110;2023-02-12T15:49:29;7.40;99.90
10678;DHT22;5387;48.722;9.110;2023-02-12T15:51:58;7.30;99.90
10678;DHT22;5387;48.722;9.110;2023-02-12T15:54:26;7.30;99.90
10678;DHT22;5387;48.722;9.110;2023-02-12T15:56:55;7.30;99.90
10678;DHT22;5387;48.722;9.110;2023-02-12T15:59:24;7.20;99.90
10678;DHT22;5387;48.722;9.110;2023-02-12T16:01:53;7.10;99.90
10678;DHT22;5387;48.722;9.110;2023-02-12T16:04:20;7.10;99.90
10678;DHT22;5387;48.722;9.110;2023-02-12T16:06:48;7.10;99.90
10678;DHT22;5387;48.722;9.110;2023-02-12T16:09:17;7.10;99.90
10678;DHT22;5387;48.722;9.110;2023-02-12T16:11:50;7.10;99.90
10678;DHT22;5387;48.722;9.110;2023-02-12T16:14:21;7.00;99.90
10678;DHT22;5387;48.722;9.110;2023-02-12T16:16:52;6.90;99.90
10678;DHT22;5387;48.722;9.110;2023-02-12T16:19:21;6.90;99.90
10678;DHT22;5387;48.722;9.110;2023-02-12T16:21:50;6.80;99.90
10678;DHT22;5387;48.722;9.110;2023-02-12T16:24:24;6.70;99.90
10678;DHT22;5387;48.722;9.110;2023-02-12T16:26:52;6.70;99.90
10678;DHT22;5387;48.722;9.110;2023-02-12T16:29:21;6.60;99.90
10678;DHT22;5387;48.722;9.110;2023-02-12T16:31:53;6.50;99.90
10678;DHT22;5387;48.722;9.110;2023-02-12T16:34:28;6.40;99.90
10678;DHT22;5387;48.722;9.110;2023-02-12T16:36:55;6.30;99.90
10678;DHT22;5387;48.722;9.110;2023-02-12T16:42:58;6.10;99.90
10678;DHT22;5387;48.722;9.110;2023-02-12T16:45:42;6.10;99.90
10678;DHT22;5387;48.722;9.110;2023-02-12T16:48:15;5.90;99.90